»·PEaware :: N103K KPAO-KDLS

N103K :: KPAO-KDLS

FLIGHT INFORMATION

Flight Status: Arrived
Operator: Privately registered:
United States
More flights under this callsign
Pilot: Andrew C. (28419)
Aircraft: SOCATA TBM-900
(TBM9)
More flights by this aircraft type
Origin: KPAO Palo Alto Of Santa Clara Co
United States
Destination: KDLS Columbia Gorge Regl/The Dalle
United States
More flights between these airports :: More routes between these airports
Route: SJC OAK J1 RBL J65 LMT
File this flight plan on PilotEdge
Remarks: RMK / SIMBRIEF
Altitude:
(Current/Filed)
28,000ft
Speed:
(Current/Filed)
320kts
Departed: 10-Sep-20 07:51 PM
Arrived: 10-Sep-20 09:52 PM
Distance/Time
Traveled:
491nm/2:01
Distance/Time
To Go:
Arrived

Flight Plot

Page will automatically refresh every two minutes.

Flight plan parsing failed; only flown route is shown


Map Options




Map Legend


Flown Route
Filed Route
Departure Airport
Arrival Airport
Navaid (VOR, NDB)
Fix

Horizontal Profiles

Position Reports

Time Latitude Longitude Heading Altitude Ground
Speed
10-Sep-20 19:37 37.454769 -122.114349 173 10ft 0kts
10-Sep-20 19:38 37.454769 -122.114349 173 10ft 0kts
10-Sep-20 19:39 37.454769 -122.114349 173 10ft 0kts
10-Sep-20 19:40 37.454769 -122.114349 173 10ft 0kts
10-Sep-20 19:41 37.454769 -122.114349 173 10ft 0kts
10-Sep-20 19:42 37.454769 -122.114349 173 10ft 0kts
10-Sep-20 19:43 37.454769 -122.114349 173 10ft 0kts
10-Sep-20 19:44 37.454769 -122.114349 173 10ft 0kts
10-Sep-20 19:45 37.454769 -122.114349 173 10ft 0kts
10-Sep-20 19:46 37.454773 -122.113895 28 10ft 7kts
10-Sep-20 19:47 37.455379 -122.110918 11 10ft 10kts
10-Sep-20 19:48 37.457567 -122.112653 0 10ft 7kts
10-Sep-20 19:49 37.457847 -122.112394 54 10ft 3kts
10-Sep-20 19:50 37.475030 -122.120062 29 965ft 124kts
10-Sep-20 19:51 37.459899 -122.089965 158 3380ft 133kts
10-Sep-20 19:52 37.439662 -122.070038 131 5144ft 131kts
10-Sep-20 19:53 37.420234 -122.034208 125 7207ft 132kts
10-Sep-20 19:54 37.400539 -121.995502 125 9134ft 135kts
10-Sep-20 19:55 37.384994 -121.952794 69 10816ft 149kts
10-Sep-20 19:56 37.415354 -121.963532 297 12465ft 155kts
10-Sep-20 19:57 37.446508 -122.001144 326 14705ft 162kts
10-Sep-20 19:58 37.483830 -122.031001 326 17302ft 159kts
10-Sep-20 19:59 37.521860 -122.061125 326 19704ft 168kts
10-Sep-20 20:00 37.560956 -122.092162 324 22277ft 170kts
10-Sep-20 20:01 37.601406 -122.124341 324 24708ft 177kts
10-Sep-20 20:02 37.642815 -122.157324 325 27211ft 180kts
10-Sep-20 20:03 37.690573 -122.195382 326 28136ft 244kts
10-Sep-20 20:04 37.760355 -122.228384 1 28095ft 296kts
10-Sep-20 20:05 37.844567 -122.224208 357 28093ft 309kts
10-Sep-20 20:06 37.930760 -122.224659 357 28090ft 311kts
10-Sep-20 20:07 38.017472 -122.225118 357 28089ft 311kts
10-Sep-20 20:08 38.103707 -122.225568 357 28089ft 311kts
10-Sep-20 20:09 38.189851 -122.226026 357 28091ft 312kts
10-Sep-20 20:10 38.276679 -122.226476 357 28091ft 312kts
10-Sep-20 20:11 38.363829 -122.226937 357 27999ft 313kts
10-Sep-20 20:12 38.450932 -122.227408 357 27999ft 312kts
10-Sep-20 20:13 38.537846 -122.227864 357 27999ft 312kts
10-Sep-20 20:14 38.624530 -122.228328 358 27999ft 312kts
10-Sep-20 20:15 38.711153 -122.228797 358 27999ft 312kts
10-Sep-20 20:16 38.797954 -122.229260 358 27999ft 312kts
10-Sep-20 20:17 38.885020 -122.229722 358 27998ft 312kts
10-Sep-20 20:18 38.971404 -122.230187 359 27998ft 311kts
10-Sep-20 20:19 39.057960 -122.230656 359 27998ft 311kts
10-Sep-20 20:20 39.144569 -122.231120 359 28000ft 311kts
10-Sep-20 20:21 39.231273 -122.231594 359 28000ft 311kts
10-Sep-20 20:22 39.317675 -122.232061 0 28000ft 311kts
10-Sep-20 20:23 39.404060 -122.232528 0 28000ft 310kts
10-Sep-20 20:24 39.490376 -122.233001 0 28000ft 310kts
10-Sep-20 20:25 39.576709 -122.233473 0 27999ft 310kts
10-Sep-20 20:26 39.662523 -122.233942 0 27999ft 309kts
10-Sep-20 20:27 39.748693 -122.234413 0 27999ft 310kts
10-Sep-20 20:28 39.834563 -122.234886 0 27999ft 309kts
10-Sep-20 20:29 39.920442 -122.235360 0 27998ft 309kts
10-Sep-20 20:30 40.006399 -122.235836 1 27998ft 309kts
10-Sep-20 20:31 40.092294 -122.236241 2 27996ft 308kts
10-Sep-20 20:32 40.176843 -122.217612 11 28001ft 307kts
10-Sep-20 20:33 40.261299 -122.197287 11 28001ft 307kts
10-Sep-20 20:34 40.345214 -122.177025 11 28000ft 306kts
10-Sep-20 20:35 40.429181 -122.156695 11 28000ft 307kts
10-Sep-20 20:36 40.513353 -122.136277 11 28000ft 307kts
10-Sep-20 20:37 40.597634 -122.115764 11 27999ft 307kts
10-Sep-20 20:38 40.681772 -122.095240 11 27999ft 306kts
10-Sep-20 20:39 40.765760 -122.074707 11 27999ft 306kts
10-Sep-20 20:40 40.849158 -122.054256 11 28172ft 302kts
10-Sep-20 20:41 40.931808 -122.033935 11 28172ft 303kts
10-Sep-20 20:42 41.015001 -122.013436 11 28170ft 304kts
10-Sep-20 20:43 41.097889 -121.992940 11 28168ft 303kts
10-Sep-20 20:44 41.180464 -121.972502 11 28170ft 301kts
10-Sep-20 20:46 41.262685 -121.952088 12 28168ft 301kts
10-Sep-20 20:47 41.345140 -121.931550 12 28177ft 300kts
10-Sep-20 20:48 41.427202 -121.911069 12 28196ft 300kts
10-Sep-20 20:49 41.509165 -121.890557 12 28201ft 299kts
10-Sep-20 20:50 41.591122 -121.869991 12 28200ft 299kts
10-Sep-20 20:51 41.673306 -121.849321 12 28199ft 299kts
10-Sep-20 20:52 41.754918 -121.828733 12 28199ft 298kts
10-Sep-20 20:53 41.836410 -121.808127 12 28199ft 299kts
10-Sep-20 20:54 41.918036 -121.787434 12 28198ft 299kts
10-Sep-20 20:55 41.999717 -121.766672 12 28190ft 299kts
10-Sep-20 20:56 42.081266 -121.745889 12 28180ft 298kts
10-Sep-20 20:57 42.162976 -121.725982 8 28182ft 299kts
10-Sep-20 20:58 42.245876 -121.713385 8 28183ft 299kts
10-Sep-20 20:59 42.328579 -121.700740 8 28183ft 299kts
10-Sep-20 21:00 42.411358 -121.688052 8 28182ft 299kts
10-Sep-20 21:01 42.495218 -121.675161 8 28182ft 298kts
10-Sep-20 21:02 42.577441 -121.662479 8 28182ft 297kts
10-Sep-20 21:03 42.659658 -121.649775 8 28191ft 297kts
10-Sep-20 21:03 42.727908 -121.639205 7 28198ft 296kts
10-Sep-20 21:05 42.823210 -121.624399 7 28198ft 296kts
10-Sep-20 21:06 42.905208 -121.611627 7 28197ft 296kts
10-Sep-20 21:06 42.973340 -121.600988 7 28197ft 295kts
10-Sep-20 21:08 43.068559 -121.586080 7 28199ft 295kts
10-Sep-20 21:09 43.149987 -121.573291 7 28219ft 295kts
10-Sep-20 21:09 43.218152 -121.562559 7 28230ft 295kts
10-Sep-20 21:10 43.299675 -121.549698 7 28229ft 295kts
10-Sep-20 21:11 43.381264 -121.536787 7 28228ft 295kts
10-Sep-20 21:12 43.462983 -121.523820 7 28228ft 296kts
10-Sep-20 21:13 43.544686 -121.510822 7 28227ft 295kts
10-Sep-20 21:14 43.626177 -121.497821 7 28227ft 295kts
10-Sep-20 21:15 43.707388 -121.484830 7 28224ft 295kts
10-Sep-20 21:16 43.789213 -121.471700 6 28209ft 295kts
10-Sep-20 21:17 43.870861 -121.458571 7 28197ft 295kts
10-Sep-20 21:18 43.952277 -121.445438 6 28175ft 296kts
10-Sep-20 21:19 44.036710 -121.431773 6 27169ft 313kts
10-Sep-20 21:20 44.123983 -121.417636 6 26154ft 316kts
10-Sep-20 21:21 44.210009 -121.403639 6 25157ft 309kts
10-Sep-20 21:22 44.295010 -121.389770 6 24157ft 307kts
10-Sep-20 21:23 44.380308 -121.375808 6 23151ft 305kts
10-Sep-20 21:24 44.464469 -121.361994 6 22053ft 302kts
10-Sep-20 21:25 44.547772 -121.348274 7 20889ft 306kts
10-Sep-20 21:26 44.633144 -121.334188 7 19369ft 306kts
10-Sep-20 21:27 44.718568 -121.320047 7 17840ft 298kts
10-Sep-20 21:28 44.799741 -121.301281 18 16288ft 289kts
10-Sep-20 21:29 44.877013 -121.264113 18 14755ft 288kts
10-Sep-20 21:30 44.952068 -121.227560 18 13217ft 275kts
10-Sep-20 21:31 45.025465 -121.191709 18 11676ft 273kts
10-Sep-20 21:32 45.098754 -121.155441 18 9961ft 272kts
10-Sep-20 21:33 45.168514 -121.121349 17 8556ft 253kts
10-Sep-20 21:34 45.230950 -121.090725 18 8490ft 223kts
10-Sep-20 21:35 45.290184 -121.061645 18 8510ft 228kts
10-Sep-20 21:36 45.354322 -121.029765 18 8521ft 248kts
10-Sep-20 21:37 45.420771 -120.996800 18 8521ft 250kts
10-Sep-20 21:38 45.487263 -120.963664 19 8461ft 252kts
10-Sep-20 21:39 45.553785 -120.930334 19 8415ft 253kts
10-Sep-20 21:40 45.620398 -120.897276 17 8486ft 250kts
10-Sep-20 21:41 45.686962 -120.863612 23 8398ft 253kts
10-Sep-20 21:42 45.748876 -120.814667 42 7218ft 242kts
10-Sep-20 21:43 45.720319 -120.757092 200 6105ft 231kts
10-Sep-20 21:44 45.691782 -120.835886 245 5290ft 225kts
10-Sep-20 21:45 45.671029 -120.916537 252 4702ft 214kts
10-Sep-20 21:46 45.656257 -120.992289 252 4174ft 187kts
10-Sep-20 21:47 45.640484 -121.058777 253 2971ft 118kts
10-Sep-20 21:48 45.631431 -121.097913 243 1984ft 102kts
10-Sep-20 21:49 45.621957 -121.133978 266 919ft 93kts
10-Sep-20 21:50 45.621036 -121.168774 268 222ft 73kts
10-Sep-20 21:51 45.619802 -121.176346 129 218ft 9kts
10-Sep-20 21:52 45.618761 -121.173843 88 222ft 0kts
10-Sep-20 21:53 45.618761 -121.173844 88 222ft 0kts

Navigation Log

Ident Type
Flight plan parsing failed, navigation log unavailable